Latest Weather Observations for Merimbula

IDN60801

Issued at 10:12 am EDT Wednesday 16 January 2019 (issued every 10 minutes, with the page automatically refreshed every 10 minutes)

About weather observations | Map of weather stations | Latest weather observations for NSW | Other Formats
Station Details ID: 069147 Name: MERIMBULA AIRPORT AWS Lat: -36.91 Lon: 149.90 Height: 1.5 m
Data from the previous 72 hours. | See also: Recent months at Merimbula
Date/Time
EDT
Temp
°C
App
Temp
°C
Dew
Point
°C
Rel
Hum
%
Delta-T
°C
Wind Press
QNH
hPa
Press
MSL
hPa
Rain since
9am
mm
Dir  Spd
km/h
Gust
km/h
Spd
kts
Gust
kts
16/10:00am 22.8 24.8 20.0 84 1.8 E 9 13 5 7 1010.0 1010.0 0.0
16/09:30am 22.3 24.9 20.0 87 1.5 E 6 11 3 6 1010.2 1010.2 0.0
16/09:00am 21.2 24.7 19.5 90 1.1 CALM 0 0 0 0 1010.4 1010.4 0.0
16/08:48am 21.4 25.3 20.4 94 0.6 CALM 0 0 0 0 1010.4 1010.4 0.0
16/08:30am 21.1 25.1 20.6 97 0.3 CALM 0 0 0 0 1010.4 1010.4 0.0
16/08:00am 20.5 24.2 20.0 97 0.3 CALM 0 0 0 0 1010.4 1010.4 0.0
16/07:30am 20.5 24.2 20.0 97 0.3 CALM 0 0 0 0 1010.1 1010.1 0.0
16/07:00am 20.1 23.2 19.6 97 0.3 WNW 2 6 1 3 1009.7 1009.7 0.0
16/06:30am 19.6 22.5 19.1 97 0.3 SW 2 7 1 4 1009.4 1009.4 0.0
16/06:27am 19.5 22.4 19.0 97 0.3 SW 2 7 1 4 1009.4 1009.4 0.0
16/06:05am 19.0 20.7 18.5 97 0.3 SSW 7 9 4 5 1009.2 1009.2 0.0
16/06:00am 19.0 20.9 18.5 97 0.3 S 6 7 3 4 1009.2 1009.2 0.0
16/05:37am 18.8 20.3 18.1 96 0.4 SSW 7 11 4 6 1009.3 1009.3 0.0
16/05:36am 18.8 20.3 18.1 96 0.4 S 7 11 4 6 1009.2 1009.2 0.0
16/05:30am 18.9 20.5 18.2 96 0.4 SSW 7 9 4 5 1009.1 1009.1 0.0
16/05:18am 18.9 21.4 18.2 96 0.4 SSW 2 13 1 7 1009.2 1009.2 0.0
16/05:00am 19.0 21.9 18.3 96 0.4 CALM 0 0 0 0 1008.9 1008.9 0.0
16/04:47am 18.8 21.6 18.0 95 0.5 CALM 0 0 0 0 1008.9 1008.9 0.0
16/04:45am 18.8 21.6 18.0 95 0.5 CALM 0 0 0 0 1008.9 1008.9 0.0
16/04:30am 19.0 21.8 18.0 94 0.6 CALM 0 0 0 0 1009.0 1009.0 0.0
16/04:00am 18.9 21.6 17.7 93 0.7 CALM 0 0 0 0 1009.2 1009.2 0.0
16/03:30am 19.2 22.0 18.0 93 0.7 CALM 0 0 0 0 1009.3 1009.3 0.0
16/03:18am 19.5 22.5 18.5 94 0.6 CALM 0 0 0 0 1009.4 1009.4 0.0
16/03:07am 19.9 23.1 18.9 94 0.6 CALM 0 0 0 0 1009.4 1009.4 0.0
16/03:00am 20.0 23.3 19.0 94 0.6 CALM 0 0 0 0 1009.4 1009.4 0.0
16/02:43am 19.5 22.4 18.3 93 0.7 CALM 0 0 0 0 1009.3 1009.3 0.0
16/02:36am 19.8 22.9 18.6 93 0.7 CALM 0 0 0 0 1009.5 1009.5 0.0
16/02:30am 19.9 23.0 18.7 93 0.7 CALM 0 0 0 0 1009.6 1009.6 0.0
16/02:18am 19.9 23.0 18.7 93 0.7 CALM 0 0 0 0 1009.6 1009.6 0.0
16/02:00am 20.4 23.7 19.2 93 0.8 CALM 0 0 0 0 1009.7 1009.7 0.0
16/01:30am 20.3 23.6 19.0 92 0.8 CALM 0 0 0 0 1010.1 1010.1 0.0
16/01:00am 20.5 23.8 19.0 91 0.9 CALM 0 0 0 0 1010.2 1010.2 0.0
16/12:30am 21.1 24.7 19.7 92 0.9 CALM 0 0 0 0 1010.6 1010.6 0.0
16/12:00am 21.0 24.5 19.5 91 1.0 CALM 0 0 0 0 1010.5 1010.5 0.0
 
Date/Time
EDT
Temp
°C
App
Temp
°C
Dew
Point
°C
Rel
Hum
%
Delta-T
°C
Wind Press
QNH
hPa
Press
MSL
hPa
Rain since
9am
mm
Dir  Spd
km/h
Gust
km/h
Spd
kts
Gust
kts
15/11:58pm 21.0 24.5 19.5 91 1.0 CALM 0 0 0 0 1010.4 1010.4 0.0
15/11:32pm 21.1 24.4 19.2 89 1.2 CALM 0 0 0 0 1010.5 1010.5 0.0
15/11:30pm 21.1 24.4 19.2 89 1.2 CALM 0 0 0 0 1010.5 1010.5 0.0
15/11:00pm 21.6 25.3 19.9 90 1.1 CALM 0 0 0 0 1010.7 1010.7 0.0
15/10:30pm 21.8 24.7 19.9 89 1.2 S 4 7 2 4 1010.8 1010.8 0.0
15/10:00pm 21.9 25.4 19.6 87 1.5 CALM 0 0 0 0 1010.9 1010.9 0.0
15/09:30pm 22.4 24.9 19.9 86 1.6 NNE 6 11 3 6 1010.5 1010.5 0.0
15/09:00pm 22.9 25.3 20.1 84 1.8 NE 7 11 4 6 1010.2 1010.2 0.0
15/08:30pm 23.5 25.6 20.2 82 2.1 NNE 9 17 5 9 1010.2 1010.2 0.0
15/08:00pm 23.8 26.6 20.5 82 2.1 ENE 6 19 3 10 1009.7 1009.7 0.0
15/07:30pm 23.9 25.1 20.6 82 2.1 NNE 15 22 8 12 1009.0 1009.0 0.0
15/07:00pm 23.8 26.0 20.5 82 2.1 NE 9 20 5 11 1009.3 1009.3 0.0
15/06:30pm 23.8 25.7 20.5 82 2.1 ENE 11 17 6 9 1009.3 1009.3 0.0
15/06:00pm 23.9 25.0 20.4 81 2.3 NE 15 24 8 13 1008.9 1008.9 0.0
15/05:30pm 24.4 25.0 20.3 78 2.7 NE 17 26 9 14 1008.6 1008.6 0.0
15/05:00pm 26.4 27.5 21.2 73 3.4 NE 17 26 9 14 1008.3 1008.3 0.0
15/04:30pm 26.9 28.0 21.2 71 3.8 NE 17 26 9 14 1008.4 1008.4 0.0
15/04:00pm 27.1 28.2 21.2 70 3.9 NE 17 26 9 14 1008.5 1008.5 0.0
15/03:30pm 25.8 26.7 20.8 74 3.3 NE 17 24 9 13 1008.5 1008.5 0.0
15/03:00pm 26.8 27.4 21.1 71 3.8 NE 19 30 10 16 1008.6 1008.6 0.0
15/02:30pm 27.2 28.0 21.7 72 3.7 NE 20 32 11 17 1008.9 1008.9 0.0
15/02:00pm 26.2 26.7 20.8 72 3.6 NE 19 32 10 17 1009.1 1009.1 0.0
15/01:30pm 26.8 27.6 21.3 72 3.7 NE 19 28 10 15 1009.5 1009.5 0.0
15/01:00pm 26.7 27.4 21.5 73 3.5 NE 20 30 11 16 1009.8 1009.8 0.0
15/12:30pm 26.2 26.5 20.8 72 3.6 NE 20 30 11 16 1010.2 1010.2 0.0
15/12:00pm 26.1 26.5 20.7 72 3.5 NE 19 28 10 15 1010.5 1010.5 0.0
15/11:30am 26.3 26.8 20.8 71 3.6 NE 19 28 10 15 1010.8 1010.8 0.0
15/11:00am 25.7 26.0 20.5 73 3.4 NE 19 28 10 15 1011.1 1011.1 0.0
15/10:30am 25.8 26.8 21.0 75 3.2 NE 17 26 9 14 1011.4 1011.4 0.0
15/10:00am 25.3 26.4 20.5 75 3.1 NE 15 22 8 12 1011.8 1011.8 0.0
15/09:33am 24.9 25.9 20.2 75 3.1 ENE 15 22 8 12 1012.1 1012.1 0.0
15/09:30am 25.1 26.2 20.4 75 3.1 ENE 15 22 8 12 1012.1 1012.1 0.0
15/09:00am 24.2 25.8 19.9 77 2.8 N 11 17 6 9 1012.2 1012.2 0.0
15/08:30am 23.9 27.8 20.4 81 2.3 CALM 0 0 0 0 1012.2 1012.2 0.0
15/08:00am 23.4 27.1 20.0 81 2.2 CALM 0 0 0 0 1012.2 1012.2 0.0
15/07:42am 23.7 27.7 20.6 83 2.0 CALM 0 0 0 0 1012.1 1012.1 0.0
15/07:30am 23.0 26.9 20.3 85 1.7 CALM 0 0 0 0 1012.1 1012.1 0.0
15/07:20am 22.6 26.6 20.5 88 1.4 CALM 0 0 0 0 1012.0 1012.0 0.0
15/07:00am 22.0 25.9 20.3 90 1.1 CALM 0 0 0 0 1011.8 1011.8 0.0
15/06:42am 21.8 25.7 20.3 91 1.0 CALM 0 0 0 0 1011.7 1011.7 0.0
15/06:30am 21.6 25.4 20.1 91 1.0 CALM 0 0 0 0 1011.7 1011.7 0.0
15/06:17am 21.6 25.3 19.9 90 1.1 CALM 0 0 0 0 1011.6 1011.6 0.0
15/06:00am 21.6 25.2 19.7 89 1.2 CALM 0 0 0 0 1011.4 1011.4 0.0
15/05:30am 21.9 25.5 19.8 88 1.3 CALM 0 0 0 0 1011.4 1011.4 0.0
15/05:00am 22.3 25.9 19.8 86 1.6 CALM 0 0 0 0 1011.5 1011.5 0.0
15/04:30am 22.1 25.8 20.0 88 1.3 CALM 0 15 0 8 1011.4 1011.4 0.0
15/04:00am 22.0 25.8 20.1 89 1.2 CALM 0 0 0 0 1011.5 1011.5 0.0
15/03:30am 21.9 25.6 20.0 89 1.2 CALM 0 0 0 0 1011.9 1011.9 0.0
15/03:00am 21.8 25.5 19.9 89 1.2 CALM 0 0 0 0 1012.4 1012.4 0.0
15/02:30am 21.6 25.1 19.5 88 1.3 CALM 0 0 0 0 1012.8 1012.8 0.0
15/02:19am 21.7 25.2 19.6 88 1.3 CALM 0 0 0 0 1012.9 1012.9 0.0
15/02:00am 21.7 25.1 19.4 87 1.5 CALM 0 0 0 0 1013.2 1013.2 0.0
15/01:30am 21.9 25.4 19.5 86 1.5 CALM 0 0 0 0 1013.5 1013.5 0.0
15/01:00am 22.4 24.3 19.8 85 1.7 NNW 9 13 5 7 1013.6 1013.6 0.0
15/12:30am 22.3 25.9 19.7 85 1.7 CALM 0 0 0 0 1013.8 1013.8 0.0
15/12:00am 22.2 25.2 19.2 83 1.9 N 2 9 1 5 1013.9 1013.9 0.0
 
Date/Time
EDT
Temp
°C
App
Temp
°C
Dew
Point
°C
Rel
Hum
%
Delta-T
°C
Wind Press
QNH
hPa
Press
MSL
hPa
Rain since
9am
mm
Dir  Spd
km/h
Gust
km/h
Spd
kts
Gust
kts
14/11:30pm 22.8 25.1 19.8 83 1.9 N 7 15 4 8 1014.1 1014.1 0.0
14/11:00pm 22.8 25.7 19.8 83 1.9 N 4 9 2 5 1014.2 1014.2 0.0
14/10:30pm 23.1 25.1 19.9 82 2.1 NNE 9 20 5 11 1014.1 1014.1 0.0
14/10:00pm 23.1 24.2 19.7 81 2.2 NNE 13 20 7 11 1014.1 1014.1 0.0
14/09:30pm 23.1 24.3 19.9 82 2.1 NNE 13 22 7 12 1013.9 1013.9 0.0
14/09:00pm 23.0 24.7 20.1 84 1.9 NNE 11 20 6 11 1013.9 1013.9 0.0
14/08:30pm 23.2 24.8 20.0 82 2.1 NNE 11 19 6 10 1013.8 1013.8 0.0
14/08:00pm 23.6 24.9 20.1 81 2.3 NNE 13 19 7 10 1013.4 1013.4 0.0
14/07:30pm 23.8 23.9 19.9 79 2.5 NE 19 35 10 19 1013.0 1013.0 0.0
14/07:00pm 24.2 24.3 20.3 79 2.5 NE 20 35 11 19 1012.6 1012.6 0.0
14/06:30pm 24.5 24.6 20.4 78 2.7 NE 20 39 11 21 1012.3 1012.3 0.0
14/06:00pm 25.0 25.3 20.7 77 2.8 NNE 20 35 11 19 1012.2 1012.2 0.0
14/05:30pm 25.1 24.8 20.4 75 3.1 NE 22 35 12 19 1012.0 1012.0 0.0
14/05:00pm 25.4 25.1 20.4 74 3.3 NE 22 41 12 22 1012.1 1012.1 0.0
14/04:30pm 25.7 25.2 20.7 74 3.3 NE 24 41 13 22 1012.2 1012.2 0.0
14/04:00pm 26.0 26.0 21.0 74 3.3 NE 22 35 12 19 1012.5 1012.5 0.0
14/03:30pm 26.1 25.7 20.9 73 3.4 NE 24 41 13 22 1013.0 1013.0 0.0
14/03:00pm 26.1 26.4 20.7 72 3.5 NNE 20 35 11 19 1013.3 1013.3 0.0
14/02:30pm 25.9 25.3 20.5 72 3.5 NE 24 41 13 22 1013.5 1013.5 0.0
14/02:00pm 25.3 24.1 20.1 73 3.4 NE 26 39 14 21 1013.7 1013.7 0.0
14/01:30pm 25.6 25.0 20.6 74 3.3 NE 24 35 13 19 1014.3 1014.3 0.0
14/01:00pm 25.2 24.8 20.2 74 3.2 NE 22 33 12 18 1014.9 1014.9 0.0
14/12:30pm 25.9 25.7 20.5 72 3.5 NE 22 35 12 19 1015.3 1015.3 0.0
14/12:00pm 24.8 24.2 19.8 74 3.2 NE 22 37 12 20 1015.6 1015.6 0.0
14/11:30am 25.7 26.1 20.7 74 3.3 NE 19 30 10 16 1015.9 1015.9 0.0
14/11:00am 25.2 26.2 20.2 74 3.2 NE 15 28 8 15 1016.3 1016.3 0.0
14/10:30am 24.2 24.7 20.1 78 2.7 NE 17 26 9 14 1016.6 1016.6 0.0
14/10:00am 23.6 23.8 19.3 77 2.7 NE 17 24 9 13 1016.8 1016.8 0.0
14/09:37am 23.6 23.7 19.1 76 2.9 NE 17 24 9 13 1017.0 1017.0 0.0
14/09:30am 23.9 25.1 19.8 78 2.6 NE 13 20 7 11 1016.9 1016.9 0.0
14/09:00am 22.7 25.4 19.5 82 2.0 E 4 15 2 8 1017.2 1017.2 1.2
14/08:49am 22.8 26.3 19.6 82 2.0 CALM 0 0 0 0 1017.3 1017.3 1.2
14/08:30am 22.0 25.4 19.4 85 1.7 CALM 0 0 0 0 1017.5 1017.5 1.2
14/08:00am 21.0 24.4 19.3 90 1.1 CALM 0 0 0 0 1017.6 1017.6 1.2
14/07:41am 20.2 23.0 18.9 92 0.8 NNE 2 7 1 4 1017.6 1017.6 1.2
14/07:30am 20.0 21.8 18.8 93 0.8 NNW 7 11 4 6 1017.7 1017.7 1.2
14/07:00am 19.4 20.3 18.4 94 0.6 WNW 11 15 6 8 1017.6 1017.6 1.2
14/06:30am 19.3 20.6 18.5 95 0.5 WNW 9 15 5 8 1017.7 1017.7 1.2
14/06:23am 19.3 20.6 18.5 95 0.5 WNW 9 11 5 6 1017.6 1017.6 1.2
14/06:00am 19.2 20.5 18.4 95 0.5 NW 9 11 5 6 1017.6 1017.6 1.2
14/05:30am 19.3 20.9 18.3 94 0.6 WNW 7 9 4 5 1017.7 1017.7 0.8
14/05:12am 19.4 21.2 18.4 94 0.6 W 6 9 3 5 1017.8 1017.8 0.8
14/05:08am 19.3 21.1 18.3 94 0.6 WNW 6 9 3 5 1017.9 1017.9 0.8
14/05:00am 19.2 20.4 18.2 94 0.6 WNW 9 11 5 6 1017.9 1017.9 0.8
14/04:30am 19.4 22.0 18.4 94 0.6 NNW 2 9 1 5 1018.1 1018.1 0.6
14/04:00am 19.3 21.9 18.3 94 0.6 N 2 7 1 4 1018.3 1018.3 0.6
14/03:30am 19.3 20.9 18.3 94 0.6 NE 7 11 4 6 1018.9 1018.9 0.2
14/03:00am 19.3 20.1 18.1 93 0.7 NE 11 19 6 10 1019.3 1019.3 0.0
14/02:45am 19.4 19.8 18.2 93 0.7 NE 13 20 7 11 1019.5 1019.5 0.0
14/02:43am 19.5 20.4 18.3 93 0.7 NE 11 17 6 9 1019.6 1019.6 0.0
14/02:30am 19.4 19.8 18.2 93 0.7 NE 13 20 7 11 1019.8 1019.8 0.0
14/02:00am 19.4 19.7 17.9 91 0.9 NE 13 24 7 13 1020.3 1020.3 0.0
14/01:41am 19.7 20.3 17.8 89 1.2 NE 11 19 6 10 1020.7 1020.7 0.0
14/01:34am 19.8 20.1 17.9 89 1.2 NE 13 20 7 11 1020.8 1020.8 0.0
14/01:30am 19.8 20.1 17.8 88 1.2 NE 13 20 7 11 1020.9 1020.9 0.0
14/01:18am 20.1 19.9 17.5 85 1.6 NE 15 26 8 14 1021.1 1021.1 0.0
14/01:03am 20.7 20.7 17.3 81 2.1 NE 13 20 7 11 1021.3 1021.3 0.0
14/01:00am 20.7 20.7 17.3 81 2.1 NE 13 20 7 11 1021.3 1021.3 0.0
14/12:30am 21.0 20.9 17.0 78 2.4 NE 13 26 7 14 1021.5 1021.5 0.0
14/12:00am 21.4 21.2 16.6 74 2.9 NE 13 20 7 11 1021.7 1021.7 0.0
 
Date/Time
EDT
Temp
°C
App
Temp
°C
Dew
Point
°C
Rel
Hum
%
Delta-T
°C
Wind Press
QNH
hPa
Press
MSL
hPa
Rain since
9am
mm
Dir  Spd
km/h
Gust
km/h
Spd
kts
Gust
kts
13/11:30pm 21.4 21.2 16.6 74 2.9 NE 13 20 7 11 1021.9 1021.9 0.0
13/11:00pm 21.4 21.2 16.8 75 2.8 NE 13 19 7 10 1022.0 1022.0 0.0
13/10:30pm 21.4 21.2 16.8 75 2.8 ENE 13 22 7 12 1022.3 1022.3 0.0
13/10:00pm 21.4 21.2 16.6 74 2.9 ENE 13 20 7 11 1022.5 1022.5 0.0
13/09:30pm 21.4 20.7 16.4 73 3.0 ENE 15 20 8 11 1022.5 1022.5 0.0
13/09:00pm 21.2 20.4 16.2 73 3.0 ENE 15 20 8 11 1022.5 1022.5 0.0
13/08:30pm 21.3 20.1 16.0 72 3.2 ENE 17 24 9 13 1022.3 1022.3 0.0
13/08:00pm 21.3 20.8 15.8 71 3.3 ENE 13 19 7 10 1022.1 1022.1 0.0
13/07:30pm 21.5 20.6 15.8 70 3.4 ENE 15 22 8 12 1022.0 1022.0 0.0
13/07:00pm 21.6 21.0 15.7 69 3.5 E 13 20 7 11 1021.9 1021.9 0.0
13/06:30pm 22.0 21.4 15.6 67 3.8 E 13 19 7 10 1021.9 1021.9 0.0
13/06:00pm 22.3 21.6 15.4 65 4.1 E 13 22 7 12 1021.8 1021.8 0.0
13/05:30pm 23.5 22.7 16.1 63 4.5 E 15 20 8 11 1021.7 1021.7 0.0
13/05:00pm 23.9 23.2 16.4 63 4.6 E 15 24 8 13 1021.8 1021.8 0.0
13/04:30pm 24.0 23.3 16.5 63 4.6 E 15 24 8 13 1021.8 1021.8 0.0
13/04:00pm 24.3 23.9 16.3 61 4.9 E 13 20 7 11 1022.0 1022.0 0.0
13/03:30pm 24.7 24.6 16.9 62 4.8 ESE 13 24 7 13 1022.2 1022.2 0.0
13/03:00pm 24.5 23.5 15.7 58 5.3 ESE 15 22 8 12 1022.3 1022.3 0.0
13/02:30pm 24.6 24.4 16.8 62 4.8 ESE 13 24 7 13 1022.5 1022.5 0.0
13/02:00pm 24.3 23.8 16.0 60 5.0 ESE 13 24 7 13 1022.7 1022.7 0.0
13/01:30pm 24.0 22.8 16.0 61 4.9 ESE 17 26 9 14 1022.8 1022.8 0.0
13/01:00pm 23.6 22.7 15.9 62 4.6 ESE 15 22 8 12 1022.8 1022.8 0.0
13/12:30pm 24.1 23.8 17.4 66 4.2 SE 15 24 8 13 1022.8 1022.8 0.0
13/12:00pm 24.2 23.4 17.0 64 4.4 SE 17 24 9 13 1022.9 1022.9 0.0
13/11:30am 22.6 22.2 16.2 67 3.9 SE 13 20 7 11 1023.1 1023.1 0.0
13/11:00am 23.3 22.5 16.1 64 4.3 SE 15 24 8 13 1022.8 1022.8 0.0
13/10:30am 23.3 22.3 15.6 62 4.6 SE 15 24 8 13 1022.8 1022.8 0.0

Other Formats:

Comma delimited format used in spreadsheet applications
http://www.bom.gov.au/fwo/IDN60801/IDN60801.95929.axf

JavaScript Object Notation format (JSON) in row-major order
http://www.bom.gov.au/fwo/IDN60801/IDN60801.95929.json